sensor_id;sensor_type;location;lat;lon;timestamp;pressure;altitude;pressure_sealevel;temperature;humidity
48530;BME280;34927;37.302;-121.982;2023-03-25T00:00:36;102098.0;;;21.96;25.95
48530;BME280;34927;37.302;-121.982;2023-03-25T00:01:42;102104.0;;;22.05;25.95
48530;BME280;34927;37.302;-121.982;2023-03-25T00:02:48;102106.0;;;22.01;26.11
48530;BME280;34927;37.302;-121.982;2023-03-25T00:03:51;102102.0;;;22.03;26.16
48530;BME280;34927;37.302;-121.982;2023-03-25T00:04:57;102095.0;;;22.07;26.15
48530;BME280;34927;37.302;-121.982;2023-03-25T00:06:04;102101.0;;;22.05;26.05
48530;BME280;34927;37.302;-121.982;2023-03-25T00:07:07;102102.0;;;22.03;26.31
48530;BME280;34927;37.302;-121.982;2023-03-25T00:08:11;102104.0;;;21.96;26.42
48530;BME280;34927;37.302;-121.982;2023-03-25T00:09:17;102101.0;;;22.16;26.22
48530;BME280;34927;37.302;-121.982;2023-03-25T00:10:22;102107.0;;;22.04;26.44
48530;BME280;34927;37.302;-121.982;2023-03-25T00:11:27;102112.0;;;22.02;26.49
48530;BME280;34927;37.302;-121.982;2023-03-25T00:12:31;102107.0;;;22.10;26.38
48530;BME280;34927;37.302;-121.982;2023-03-25T00:13:36;102106.0;;;22.18;26.35
48530;BME280;34927;37.302;-121.982;2023-03-25T00:14:42;102103.0;;;22.20;26.30
48530;BME280;34927;37.302;-121.982;2023-03-25T00:15:47;102102.0;;;22.10;26.40
48530;BME280;34927;37.302;-121.982;2023-03-25T00:16:51;102106.0;;;22.26;26.31
48530;BME280;34927;37.302;-121.982;2023-03-25T00:17:56;102104.0;;;22.21;26.35
48530;BME280;34927;37.302;-121.982;2023-03-25T00:19:02;102107.0;;;22.22;26.40
48530;BME280;34927;37.302;-121.982;2023-03-25T00:20:08;102105.0;;;22.27;26.48
48530;BME280;34927;37.302;-121.982;2023-03-25T00:21:12;102106.0;;;22.12;26.77
48530;BME280;34927;37.302;-121.982;2023-03-25T00:22:17;102107.0;;;22.16;26.80
48530;BME280;34927;37.302;-121.982;2023-03-25T00:23:22;102105.0;;;22.26;26.93
48530;BME280;34927;37.302;-121.982;2023-03-25T00:24:26;102108.0;;;22.20;27.08
48530;BME280;34927;37.302;-121.982;2023-03-25T00:25:33;102104.0;;;22.15;27.03
48530;BME280;34927;37.302;-121.982;2023-03-25T00:26:37;102103.0;;;22.23;26.78
48530;BME280;34927;37.302;-121.982;2023-03-25T00:27:41;102109.0;;;22.25;26.68
48530;BME280;34927;37.302;-121.982;2023-03-25T00:28:47;102107.0;;;22.18;26.57
48530;BME280;34927;37.302;-121.982;2023-03-25T00:29:51;102110.0;;;22.25;26.54
48530;BME280;34927;37.302;-121.982;2023-03-25T00:30:59;102112.0;;;22.15;26.43
48530;BME280;34927;37.302;-121.982;2023-03-25T00:32:02;102118.0;;;22.19;25.90
48530;BME280;34927;37.302;-121.982;2023-03-25T00:33:07;102114.0;;;22.25;25.88
48530;BME280;34927;37.302;-121.982;2023-03-25T00:34:12;102111.0;;;22.47;25.67
48530;BME280;34927;37.302;-121.982;2023-03-25T00:35:17;102107.0;;;22.74;25.43
48530;BME280;34927;37.302;-121.982;2023-03-25T00:36:21;102114.0;;;23.01;25.27
48530;BME280;34927;37.302;-121.982;2023-03-25T00:37:27;102120.0;;;23.24;25.05
48530;BME280;34927;37.302;-121.982;2023-03-25T00:38:33;102109.0;;;23.41;24.83
48530;BME280;34927;37.302;-121.982;2023-03-25T00:39:36;102115.0;;;23.62;24.64
48530;BME280;34927;37.302;-121.982;2023-03-25T00:40:42;102111.0;;;23.82;24.45
48530;BME280;34927;37.302;-121.982;2023-03-25T00:41:46;102113.0;;;23.96;24.27
48530;BME280;34927;37.302;-121.982;2023-03-25T00:42:51;102113.0;;;24.09;24.13
48530;BME280;34927;37.302;-121.982;2023-03-25T00:43:58;102115.0;;;24.20;23.96
48530;BME280;34927;37.302;-121.982;2023-03-25T00:45:02;102112.0;;;24.32;23.83
48530;BME280;34927;37.302;-121.982;2023-03-25T00:46:07;102114.0;;;24.38;23.76
48530;BME280;34927;37.302;-121.982;2023-03-25T00:47:12;102112.0;;;24.47;23.66
48530;BME280;34927;37.302;-121.982;2023-03-25T00:48:16;102114.0;;;24.56;23.62
48530;BME280;34927;37.302;-121.982;2023-03-25T00:49:22;102110.0;;;24.70;23.60
48530;BME280;34927;37.302;-121.982;2023-03-25T00:50:27;102113.0;;;24.83;23.56
48530;BME280;34927;37.302;-121.982;2023-03-25T00:51:36;102109.0;;;24.90;23.60
48530;BME280;34927;37.302;-121.982;2023-03-25T00:52:41;102115.0;;;24.98;23.61
48530;BME280;34927;37.302;-121.982;2023-03-25T00:53:48;102111.0;;;25.02;23.72
48530;BME280;34927;37.302;-121.982;2023-03-25T00:54:52;102119.0;;;24.90;23.91
48530;BME280;34927;37.302;-121.982;2023-03-25T00:55:57;102121.0;;;24.72;24.29
48530;BME280;34927;37.302;-121.982;2023-03-25T00:57:01;102119.0;;;24.64;24.35
48530;BME280;34927;37.302;-121.982;2023-03-25T00:58:06;102117.0;;;24.41;24.84
48530;BME280;34927;37.302;-121.982;2023-03-25T00:59:11;102123.0;;;24.17;25.09
48530;BME280;34927;37.302;-121.982;2023-03-25T01:00:17;102119.0;;;23.89;25.58
48530;BME280;34927;37.302;-121.982;2023-03-25T01:01:23;102120.0;;;23.81;25.51
48530;BME280;34927;37.302;-121.982;2023-03-25T01:02:26;102122.0;;;23.93;25.62
48530;BME280;34927;37.302;-121.982;2023-03-25T01:03:31;102125.0;;;24.10;25.52
48530;BME280;34927;37.302;-121.982;2023-03-25T01:04:36;102129.0;;;24.29;25.34
48530;BME280;34927;37.302;-121.982;2023-03-25T01:05:41;102125.0;;;24.48;25.16
48530;BME280;34927;37.302;-121.982;2023-03-25T01:06:46;102128.0;;;24.70;24.89
48530;BME280;34927;37.302;-121.982;2023-03-25T01:07:51;102129.0;;;24.85;24.77
48530;BME280;34927;37.302;-121.982;2023-03-25T01:08:57;102127.0;;;25.05;24.69
48530;BME280;34927;37.302;-121.982;2023-03-25T01:10:03;102128.0;;;25.19;24.55
48530;BME280;34927;37.302;-121.982;2023-03-25T01:11:16;102129.0;;;25.32;24.41
48530;BME280;34927;37.302;-121.982;2023-03-25T01:12:22;102124.0;;;25.28;24.51
48530;BME280;34927;37.302;-121.982;2023-03-25T01:13:26;102121.0;;;25.14;24.74
48530;BME280;34927;37.302;-121.982;2023-03-25T01:14:31;102127.0;;;25.08;24.85
48530;BME280;34927;37.302;-121.982;2023-03-25T01:15:39;102126.0;;;24.83;25.28
48530;BME280;34927;37.302;-121.982;2023-03-25T01:16:42;102122.0;;;24.47;25.53
48530;BME280;34927;37.302;-121.982;2023-03-25T01:17:46;102124.0;;;24.42;25.75
48530;BME280;34927;37.302;-121.982;2023-03-25T01:18:52;102130.0;;;24.18;26.04
48530;BME280;34927;37.302;-121.982;2023-03-25T01:19:57;102125.0;;;24.08;26.10
48530;BME280;34927;37.302;-121.982;2023-03-25T01:21:02;102129.0;;;24.09;25.99
48530;BME280;34927;37.302;-121.982;2023-03-25T01:22:06;102132.0;;;24.18;25.94
48530;BME280;34927;37.302;-121.982;2023-03-25T01:23:11;102133.0;;;24.34;25.79
48530;BME280;34927;37.302;-121.982;2023-03-25T01:24:17;102133.0;;;24.54;25.60
48530;BME280;34927;37.302;-121.982;2023-03-25T01:25:21;102134.0;;;24.74;25.39
48530;BME280;34927;37.302;-121.982;2023-03-25T01:26:26;102138.0;;;24.95;25.17
48530;BME280;34927;37.302;-121.982;2023-03-25T01:27:32;102134.0;;;25.16;24.98
48530;BME280;34927;37.302;-121.982;2023-03-25T01:28:36;102138.0;;;25.28;24.85
48530;BME280;34927;37.302;-121.982;2023-03-25T01:29:42;102136.0;;;25.42;24.66
48530;BME280;34927;37.302;-121.982;2023-03-25T01:30:46;102137.0;;;25.43;24.65
48530;BME280;34927;37.302;-121.982;2023-03-25T01:31:58;102141.0;;;25.26;24.85
48530;BME280;34927;37.302;-121.982;2023-03-25T01:33:02;102140.0;;;25.19;25.00
48530;BME280;34927;37.302;-121.982;2023-03-25T01:34:07;102142.0;;;24.98;25.24
48530;BME280;34927;37.302;-121.982;2023-03-25T01:35:11;102144.0;;;24.75;25.53
48530;BME280;34927;37.302;-121.982;2023-03-25T01:36:16;102144.0;;;24.54;25.81
48530;BME280;34927;37.302;-121.982;2023-03-25T01:37:22;102146.0;;;24.35;25.99
48530;BME280;34927;37.302;-121.982;2023-03-25T01:38:26;102143.0;;;24.25;26.20
48530;BME280;34927;37.302;-121.982;2023-03-25T01:39:31;102143.0;;;24.21;26.25
48530;BME280;34927;37.302;-121.982;2023-03-25T01:40:37;102137.0;;;24.06;26.46
48530;BME280;34927;37.302;-121.982;2023-03-25T01:41:42;102139.0;;;23.91;26.66
48530;BME280;34927;37.302;-121.982;2023-03-25T01:42:46;102140.0;;;23.84;26.76
48530;BME280;34927;37.302;-121.982;2023-03-25T01:46:17;102135.0;;;23.74;26.81
48530;BME280;34927;37.302;-121.982;2023-03-25T01:47:21;102132.0;;;23.86;26.77
48530;BME280;34927;37.302;-121.982;2023-03-25T01:48:29;102135.0;;;24.06;26.67
48530;BME280;34927;37.302;-121.982;2023-03-25T01:49:34;102132.0;;;24.36;26.43
48530;BME280;34927;37.302;-121.982;2023-03-25T01:50:43;102132.0;;;24.61;26.15
48530;BME280;34927;37.302;-121.982;2023-03-25T01:51:55;102128.0;;;24.85;25.88
48530;BME280;34927;37.302;-121.982;2023-03-25T01:53:02;102123.0;;;24.98;25.77
48530;BME280;34927;37.302;-121.982;2023-03-25T01:54:07;102128.0;;;24.88;25.86
48530;BME280;34927;37.302;-121.982;2023-03-25T01:55:13;102126.0;;;24.81;26.06
48530;BME280;34927;37.302;-121.982;2023-03-25T01:56:21;102127.0;;;24.56;26.34
48530;BME280;34927;37.302;-121.982;2023-03-25T01:57:27;102128.0;;;24.35;26.50
48530;BME280;34927;37.302;-121.982;2023-03-25T01:58:33;102128.0;;;24.13;26.83
48530;BME280;34927;37.302;-121.982;2023-03-25T01:59:37;102124.0;;;23.95;27.11
48530;BME280;34927;37.302;-121.982;2023-03-25T02:00:43;102126.0;;;23.93;27.16
48530;BME280;34927;37.302;-121.982;2023-03-25T02:01:48;102129.0;;;23.86;27.27
48530;BME280;34927;37.302;-121.982;2023-03-25T02:02:53;102129.0;;;23.75;27.35
48530;BME280;34927;37.302;-121.982;2023-03-25T02:04:03;102126.0;;;23.69;27.44
48530;BME280;34927;37.302;-121.982;2023-03-25T02:05:11;102127.0;;;23.55;27.67
48530;BME280;34927;37.302;-121.982;2023-03-25T02:06:21;102132.0;;;23.52;27.61
48530;BME280;34927;37.302;-121.982;2023-03-25T02:07:30;102127.0;;;23.59;27.44
48530;BME280;34927;37.302;-121.982;2023-03-25T02:08:40;102126.0;;;23.77;27.25
48530;BME280;34927;37.302;-121.982;2023-03-25T02:09:46;102127.0;;;24.00;26.96
48530;BME280;34927;37.302;-121.982;2023-03-25T02:10:52;102129.0;;;24.25;26.71
48530;BME280;34927;37.302;-121.982;2023-03-25T02:11:56;102127.0;;;24.38;26.61
48530;BME280;34927;37.302;-121.982;2023-03-25T02:13:02;102126.0;;;24.54;26.49
48530;BME280;34927;37.302;-121.982;2023-03-25T02:14:08;102126.0;;;24.75;26.19
48530;BME280;34927;37.302;-121.982;2023-03-25T02:15:18;102127.0;;;24.74;26.10
48530;BME280;34927;37.302;-121.982;2023-03-25T02:16:28;102127.0;;;24.75;26.14
48530;BME280;34927;37.302;-121.982;2023-03-25T02:17:46;102128.0;;;24.50;26.21
48530;BME280;34927;37.302;-121.982;2023-03-25T02:18:59;102131.0;;;24.34;26.33
48530;BME280;34927;37.302;-121.982;2023-03-25T02:20:29;102132.0;;;24.26;26.44
48530;BME280;34927;37.302;-121.982;2023-03-25T02:23:22;102130.0;;;23.91;26.98
48530;BME280;34927;37.302;-121.982;2023-03-25T02:26:04;102125.0;;;23.75;27.15
48530;BME280;34927;37.302;-121.982;2023-03-25T02:27:17;102126.0;;;23.52;27.47
48530;BME280;34927;37.302;-121.982;2023-03-25T02:28:26;102127.0;;;23.62;27.40
48530;BME280;34927;37.302;-121.982;2023-03-25T02:29:46;102128.0;;;23.57;27.48
48530;BME280;34927;37.302;-121.982;2023-03-25T02:31:11;102132.0;;;23.75;27.59
48530;BME280;34927;37.302;-121.982;2023-03-25T02:32:30;102132.0;;;24.00;27.49
48530;BME280;34927;37.302;-121.982;2023-03-25T02:35:11;102135.0;;;24.54;26.97
48530;BME280;34927;37.302;-121.982;2023-03-25T02:38:04;102135.0;;;24.44;27.00
48530;BME280;34927;37.302;-121.982;2023-03-25T02:39:15;102136.0;;;24.21;27.15
48530;BME280;34927;37.302;-121.982;2023-03-25T02:40:26;102135.0;;;24.04;27.32
48530;BME280;34927;37.302;-121.982;2023-03-25T02:41:38;102134.0;;;23.97;27.33
48530;BME280;34927;37.302;-121.982;2023-03-25T02:42:46;102135.0;;;23.81;27.57
48530;BME280;34927;37.302;-121.982;2023-03-25T02:43:54;102137.0;;;23.69;27.80
48530;BME280;34927;37.302;-121.982;2023-03-25T02:45:05;102144.0;;;23.64;27.81
48530;BME280;34927;37.302;-121.982;2023-03-25T02:46:15;102148.0;;;23.51;28.07
48530;BME280;34927;37.302;-121.982;2023-03-25T02:47:26;102149.0;;;23.48;28.13
48530;BME280;34927;37.302;-121.982;2023-03-25T02:48:36;102147.0;;;23.50;28.02
48530;BME280;34927;37.302;-121.982;2023-03-25T02:49:44;102146.0;;;23.35;28.30
48530;BME280;34927;37.302;-121.982;2023-03-25T02:50:55;102143.0;;;23.29;28.38
48530;BME280;34927;37.302;-121.982;2023-03-25T02:52:07;102144.0;;;23.24;28.43
48530;BME280;34927;37.302;-121.982;2023-03-25T02:53:16;102142.0;;;23.22;28.39
48530;BME280;34927;37.302;-121.982;2023-03-25T02:54:24;102143.0;;;23.19;28.38
48530;BME280;34927;37.302;-121.982;2023-03-25T02:55:37;102142.0;;;23.17;28.51
48530;BME280;34927;37.302;-121.982;2023-03-25T02:56:43;102140.0;;;23.12;28.47
48530;BME280;34927;37.302;-121.982;2023-03-25T02:57:54;102141.0;;;23.17;28.42
48530;BME280;34927;37.302;-121.982;2023-03-25T02:59:02;102138.0;;;23.15;28.50
48530;BME280;34927;37.302;-121.982;2023-03-25T03:00:09;102134.0;;;23.10;28.49
48530;BME280;34927;37.302;-121.982;2023-03-25T03:01:12;102134.0;;;23.08;28.48
48530;BME280;34927;37.302;-121.982;2023-03-25T03:02:17;102134.0;;;23.10;28.46
48530;BME280;34927;37.302;-121.982;2023-03-25T03:03:21;102136.0;;;23.07;28.80
48530;BME280;34927;37.302;-121.982;2023-03-25T03:04:27;102142.0;;;23.22;28.76
48530;BME280;34927;37.302;-121.982;2023-03-25T03:05:34;102146.0;;;23.40;28.60
48530;BME280;34927;37.302;-121.982;2023-03-25T03:06:42;102147.0;;;23.68;28.36
48530;BME280;34927;37.302;-121.982;2023-03-25T03:07:48;102152.0;;;23.89;28.10
48530;BME280;34927;37.302;-121.982;2023-03-25T03:09:10;102152.0;;;23.95;27.99
48530;BME280;34927;37.302;-121.982;2023-03-25T03:10:20;102154.0;;;23.87;28.00
48530;BME280;34927;37.302;-121.982;2023-03-25T03:11:28;102153.0;;;23.79;28.14
48530;BME280;34927;37.302;-121.982;2023-03-25T03:12:48;102152.0;;;23.62;28.33
48530;BME280;34927;37.302;-121.982;2023-03-25T03:14:09;102157.0;;;23.48;28.24
48530;BME280;34927;37.302;-121.982;2023-03-25T03:15:25;102157.0;;;23.38;28.38
48530;BME280;34927;37.302;-121.982;2023-03-25T03:16:38;102159.0;;;23.44;28.28
48530;BME280;34927;37.302;-121.982;2023-03-25T03:17:54;102158.0;;;23.37;28.33
48530;BME280;34927;37.302;-121.982;2023-03-25T03:19:09;102161.0;;;23.29;28.45
48530;BME280;34927;37.302;-121.982;2023-03-25T03:20:22;102164.0;;;23.09;28.71
48530;BME280;34927;37.302;-121.982;2023-03-25T03:21:36;102165.0;;;23.18;28.53
48530;BME280;34927;37.302;-121.982;2023-03-25T03:22:45;102159.0;;;23.10;28.67
48530;BME280;34927;37.302;-121.982;2023-03-25T03:23:58;102168.0;;;22.88;29.12
48530;BME280;34927;37.302;-121.982;2023-03-25T03:25:17;102167.0;;;22.77;29.17
48530;BME280;34927;37.302;-121.982;2023-03-25T03:26:28;102165.0;;;22.77;29.13
48530;BME280;34927;37.302;-121.982;2023-03-25T03:27:41;102165.0;;;22.86;29.07
48530;BME280;34927;37.302;-121.982;2023-03-25T03:28:49;102167.0;;;22.87;29.19
48530;BME280;34927;37.302;-121.982;2023-03-25T03:30:02;102166.0;;;22.91;29.35
48530;BME280;34927;37.302;-121.982;2023-03-25T03:31:10;102168.0;;;23.14;29.12
48530;BME280;34927;37.302;-121.982;2023-03-25T03:32:20;102169.0;;;23.39;28.82
48530;BME280;34927;37.302;-121.982;2023-03-25T03:33:31;102168.0;;;23.66;28.46
48530;BME280;34927;37.302;-121.982;2023-03-25T03:34:40;102168.0;;;23.87;28.12
48530;BME280;34927;37.302;-121.982;2023-03-25T03:35:50;102174.0;;;23.86;28.03
48530;BME280;34927;37.302;-121.982;2023-03-25T03:36:57;102170.0;;;23.82;28.00
48530;BME280;34927;37.302;-121.982;2023-03-25T03:38:05;102168.0;;;23.73;28.19
48530;BME280;34927;37.302;-121.982;2023-03-25T03:39:15;102167.0;;;23.52;28.35
48530;BME280;34927;37.302;-121.982;2023-03-25T03:40:23;102166.0;;;23.36;28.52
48530;BME280;34927;37.302;-121.982;2023-03-25T03:41:33;102161.0;;;23.25;28.63
48530;BME280;34927;37.302;-121.982;2023-03-25T03:42:45;102165.0;;;23.03;28.92
48530;BME280;34927;37.302;-121.982;2023-03-25T03:43:54;102161.0;;;23.06;28.90
48530;BME280;34927;37.302;-121.982;2023-03-25T03:45:07;102161.0;;;22.96;28.93
48530;BME280;34927;37.302;-121.982;2023-03-25T03:46:17;102162.0;;;22.85;28.98
48530;BME280;34927;37.302;-121.982;2023-03-25T03:47:24;102161.0;;;22.77;29.10
48530;BME280;34927;37.302;-121.982;2023-03-25T03:48:37;102156.0;;;22.73;29.08
48530;BME280;34927;37.302;-121.982;2023-03-25T03:49:44;102156.0;;;22.81;29.02
48530;BME280;34927;37.302;-121.982;2023-03-25T03:50:54;102155.0;;;22.64;29.24
48530;BME280;34927;37.302;-121.982;2023-03-25T03:52:01;102157.0;;;22.73;29.05
48530;BME280;34927;37.302;-121.982;2023-03-25T03:53:10;102152.0;;;22.62;29.44
48530;BME280;34927;37.302;-121.982;2023-03-25T03:54:21;102154.0;;;22.75;29.56
48530;BME280;34927;37.302;-121.982;2023-03-25T03:55:31;102148.0;;;22.95;29.39
48530;BME280;34927;37.302;-121.982;2023-03-25T03:56:40;102146.0;;;23.15;29.13
48530;BME280;34927;37.302;-121.982;2023-03-25T03:57:50;102148.0;;;23.40;28.76
48530;BME280;34927;37.302;-121.982;2023-03-25T03:58:57;102147.0;;;23.67;28.50
48530;BME280;34927;37.302;-121.982;2023-03-25T04:00:05;102149.0;;;23.78;28.30
48530;BME280;34927;37.302;-121.982;2023-03-25T04:01:15;102153.0;;;23.70;28.37
48530;BME280;34927;37.302;-121.982;2023-03-25T04:02:24;102157.0;;;23.63;28.57
48530;BME280;34927;37.302;-121.982;2023-03-25T04:03:36;102162.0;;;23.37;29.01
48530;BME280;34927;37.302;-121.982;2023-03-25T04:04:43;102161.0;;;23.36;28.74
48530;BME280;34927;37.302;-121.982;2023-03-25T04:05:53;102161.0;;;23.21;28.99
48530;BME280;34927;37.302;-121.982;2023-03-25T04:07:04;102158.0;;;23.10;29.33
48530;BME280;34927;37.302;-121.982;2023-03-25T04:08:17;102163.0;;;22.88;29.63
48530;BME280;34927;37.302;-121.982;2023-03-25T04:09:24;102165.0;;;22.76;29.73
48530;BME280;34927;37.302;-121.982;2023-03-25T04:10:36;102161.0;;;22.64;29.85
48530;BME280;34927;37.302;-121.982;2023-03-25T04:11:43;102162.0;;;22.56;29.99
48530;BME280;34927;37.302;-121.982;2023-03-25T04:12:52;102163.0;;;22.64;29.89
48530;BME280;34927;37.302;-121.982;2023-03-25T04:13:59;102160.0;;;22.68;29.91
48530;BME280;34927;37.302;-121.982;2023-03-25T04:15:07;102166.0;;;22.71;29.75
48530;BME280;34927;37.302;-121.982;2023-03-25T04:16:12;102166.0;;;22.59;29.92
48530;BME280;34927;37.302;-121.982;2023-03-25T04:17:16;102166.0;;;22.58;29.92
48530;BME280;34927;37.302;-121.982;2023-03-25T04:18:21;102166.0;;;22.68;29.71
48530;BME280;34927;37.302;-121.982;2023-03-25T04:19:27;102167.0;;;22.77;29.61
48530;BME280;34927;37.302;-121.982;2023-03-25T04:20:33;102167.0;;;22.95;29.57
48530;BME280;34927;37.302;-121.982;2023-03-25T04:21:37;102166.0;;;23.13;29.29
48530;BME280;34927;37.302;-121.982;2023-03-25T04:22:42;102167.0;;;23.38;29.01
48530;BME280;34927;37.302;-121.982;2023-03-25T04:23:46;102168.0;;;23.60;28.66
48530;BME280;34927;37.302;-121.982;2023-03-25T04:24:51;102166.0;;;23.81;28.32
48530;BME280;34927;37.302;-121.982;2023-03-25T04:25:58;102164.0;;;23.80;28.25
48530;BME280;34927;37.302;-121.982;2023-03-25T04:27:02;102171.0;;;23.72;28.65
48530;BME280;34927;37.302;-121.982;2023-03-25T04:28:11;102172.0;;;23.59;28.95
48530;BME280;34927;37.302;-121.982;2023-03-25T04:29:17;102176.0;;;23.54;28.97
48530;BME280;34927;37.302;-121.982;2023-03-25T04:30:22;102172.0;;;23.52;28.70
48530;BME280;34927;37.302;-121.982;2023-03-25T04:31:27;102172.0;;;23.46;28.76
48530;BME280;34927;37.302;-121.982;2023-03-25T04:32:31;102169.0;;;23.42;28.94
48530;BME280;34927;37.302;-121.982;2023-03-25T04:33:42;102168.0;;;23.34;28.87
48530;BME280;34927;37.302;-121.982;2023-03-25T04:34:47;102168.0;;;23.17;29.09
48530;BME280;34927;37.302;-121.982;2023-03-25T04:35:52;102167.0;;;23.09;29.31
48530;BME280;34927;37.302;-121.982;2023-03-25T04:36:57;102167.0;;;22.96;29.49
48530;BME280;34927;37.302;-121.982;2023-03-25T04:38:03;102167.0;;;22.81;29.67
48530;BME280;34927;37.302;-121.982;2023-03-25T04:39:07;102165.0;;;22.81;29.44
48530;BME280;34927;37.302;-121.982;2023-03-25T04:40:12;102161.0;;;22.70;29.54
48530;BME280;34927;37.302;-121.982;2023-03-25T04:41:17;102166.0;;;22.62;29.74
48530;BME280;34927;37.302;-121.982;2023-03-25T04:42:21;102162.0;;;22.66;29.56
48530;BME280;34927;37.302;-121.982;2023-03-25T04:43:26;102163.0;;;22.66;29.52
48530;BME280;34927;37.302;-121.982;2023-03-25T04:44:32;102169.0;;;22.87;29.41
48530;BME280;34927;37.302;-121.982;2023-03-25T04:45:37;102170.0;;;23.03;29.15
48530;BME280;34927;37.302;-121.982;2023-03-25T04:46:42;102176.0;;;23.27;28.84
48530;BME280;34927;37.302;-121.982;2023-03-25T04:47:48;102179.0;;;23.51;28.54
48530;BME280;34927;37.302;-121.982;2023-03-25T04:48:53;102185.0;;;23.71;28.19
48530;BME280;34927;37.302;-121.982;2023-03-25T04:49:56;102189.0;;;23.66;28.07
48530;BME280;34927;37.302;-121.982;2023-03-25T04:51:01;102191.0;;;23.68;28.09
48530;BME280;34927;37.302;-121.982;2023-03-25T04:52:07;102192.0;;;23.57;28.26
48530;BME280;34927;37.302;-121.982;2023-03-25T04:53:11;102192.0;;;23.41;28.41
48530;BME280;34927;37.302;-121.982;2023-03-25T04:54:17;102193.0;;;23.28;28.54
48530;BME280;34927;37.302;-121.982;2023-03-25T04:55:22;102197.0;;;23.06;28.85
48530;BME280;34927;37.302;-121.982;2023-03-25T04:56:26;102201.0;;;23.02;28.88
48530;BME280;34927;37.302;-121.982;2023-03-25T04:57:31;102204.0;;;22.97;28.91
48530;BME280;34927;37.302;-121.982;2023-03-25T04:58:37;102200.0;;;22.98;29.00
48530;BME280;34927;37.302;-121.982;2023-03-25T04:59:42;102204.0;;;22.94;28.92
48530;BME280;34927;37.302;-121.982;2023-03-25T05:00:49;102202.0;;;22.93;28.93
48530;BME280;34927;37.302;-121.982;2023-03-25T05:01:52;102197.0;;;22.84;29.06
48530;BME280;34927;37.302;-121.982;2023-03-25T05:02:57;102200.0;;;22.70;29.21
48530;BME280;34927;37.302;-121.982;2023-03-25T05:04:04;102197.0;;;22.65;29.21
48530;BME280;34927;37.302;-121.982;2023-03-25T05:05:07;102197.0;;;22.67;29.37
48530;BME280;34927;37.302;-121.982;2023-03-25T05:06:12;102198.0;;;22.81;29.34
48530;BME280;34927;37.302;-121.982;2023-03-25T05:07:17;102198.0;;;22.99;29.10
48530;BME280;34927;37.302;-121.982;2023-03-25T05:08:21;102198.0;;;23.21;28.82
48530;BME280;34927;37.302;-121.982;2023-03-25T05:09:27;102193.0;;;23.43;28.50
48530;BME280;34927;37.302;-121.982;2023-03-25T05:10:32;102196.0;;;23.66;28.19
48530;BME280;34927;37.302;-121.982;2023-03-25T05:11:37;102196.0;;;23.74;28.00
48530;BME280;34927;37.302;-121.982;2023-03-25T05:12:41;102197.0;;;23.65;28.06
48530;BME280;34927;37.302;-121.982;2023-03-25T05:13:46;102198.0;;;23.63;28.09
48530;BME280;34927;37.302;-121.982;2023-03-25T05:14:51;102194.0;;;23.49;28.28
48530;BME280;34927;37.302;-121.982;2023-03-25T05:15:56;102194.0;;;23.32;28.41
48530;BME280;34927;37.302;-121.982;2023-03-25T05:17:06;102198.0;;;23.18;28.61
48530;BME280;34927;37.302;-121.982;2023-03-25T05:18:13;102198.0;;;23.00;28.83
48530;BME280;34927;37.302;-121.982;2023-03-25T05:19:17;102197.0;;;22.90;29.04
48530;BME280;34927;37.302;-121.982;2023-03-25T05:20:21;102192.0;;;22.89;29.02
48530;BME280;34927;37.302;-121.982;2023-03-25T05:21:27;102193.0;;;22.79;29.19
48530;BME280;34927;37.302;-121.982;2023-03-25T05:22:32;102187.0;;;22.66;29.34
48530;BME280;34927;37.302;-121.982;2023-03-25T05:23:36;102191.0;;;22.71;29.25
48530;BME280;34927;37.302;-121.982;2023-03-25T05:24:41;102188.0;;;22.50;29.51
48530;BME280;34927;37.302;-121.982;2023-03-25T05:25:49;102185.0;;;22.63;29.33
48530;BME280;34927;37.302;-121.982;2023-03-25T05:26:52;102186.0;;;22.72;29.35
48530;BME280;34927;37.302;-121.982;2023-03-25T05:27:56;102185.0;;;22.92;29.15
48530;BME280;34927;37.302;-121.982;2023-03-25T05:29:08;102186.0;;;23.01;28.94
48530;BME280;34927;37.302;-121.982;2023-03-25T05:30:12;102186.0;;;23.04;28.86
48530;BME280;34927;37.302;-121.982;2023-03-25T05:31:17;102189.0;;;22.94;29.04
48530;BME280;34927;37.302;-121.982;2023-03-25T05:32:22;102189.0;;;22.88;28.97
48530;BME280;34927;37.302;-121.982;2023-03-25T05:33:27;102194.0;;;22.85;29.01
48530;BME280;34927;37.302;-121.982;2023-03-25T05:34:32;102193.0;;;22.76;29.08
48530;BME280;34927;37.302;-121.982;2023-03-25T05:35:37;102191.0;;;22.69;29.25
48530;BME280;34927;37.302;-121.982;2023-03-25T05:36:42;102190.0;;;22.54;29.43
48530;BME280;34927;37.302;-121.982;2023-03-25T05:37:47;102193.0;;;22.42;29.67
48530;BME280;34927;37.302;-121.982;2023-03-25T05:38:52;102192.0;;;22.44;29.64
48530;BME280;34927;37.302;-121.982;2023-03-25T05:39:57;102189.0;;;22.36;29.60
48530;BME280;34927;37.302;-121.982;2023-03-25T05:41:02;102190.0;;;22.29;29.67
48530;BME280;34927;37.302;-121.982;2023-03-25T05:42:06;102187.0;;;22.28;29.75
48530;BME280;34927;37.302;-121.982;2023-03-25T05:43:11;102187.0;;;22.20;29.83
48530;BME280;34927;37.302;-121.982;2023-03-25T05:44:17;102191.0;;;22.12;29.94
48530;BME280;34927;37.302;-121.982;2023-03-25T05:45:22;102191.0;;;22.03;30.04
48530;BME280;34927;37.302;-121.982;2023-03-25T05:46:27;102192.0;;;22.03;30.12
48530;BME280;34927;37.302;-121.982;2023-03-25T05:47:37;102191.0;;;21.94;30.16
48530;BME280;34927;37.302;-121.982;2023-03-25T05:48:42;102189.0;;;21.95;30.20
48530;BME280;34927;37.302;-121.982;2023-03-25T05:49:47;102187.0;;;21.93;30.23
48530;BME280;34927;37.302;-121.982;2023-03-25T05:50:52;102187.0;;;21.96;30.19